sensor_id;sensor_type;location;lat;lon;timestamp;temperature;humidity
47765;DHT22;33529;49.242;8.670;2023-07-28T00:00:52;18.10;99.90
47765;DHT22;33529;49.242;8.670;2023-07-28T00:03:19;18.00;99.90
47765;DHT22;33529;49.242;8.670;2023-07-28T00:05:46;18.10;99.90
47765;DHT22;33529;49.242;8.670;2023-07-28T00:08:13;18.10;99.90
47765;DHT22;33529;49.242;8.670;2023-07-28T00:10:43;18.10;99.90
47765;DHT22;33529;49.242;8.670;2023-07-28T00:13:10;18.10;99.90
47765;DHT22;33529;49.242;8.670;2023-07-28T00:15:37;18.10;99.90
47765;DHT22;33529;49.242;8.670;2023-07-28T00:18:03;18.10;99.90
47765;DHT22;33529;49.242;8.670;2023-07-28T00:20:31;18.00;99.90
47765;DHT22;33529;49.242;8.670;2023-07-28T00:22:59;18.00;99.90
47765;DHT22;33529;49.242;8.670;2023-07-28T00:25:25;18.10;99.90
47765;DHT22;33529;49.242;8.670;2023-07-28T00:27:52;18.00;99.90
47765;DHT22;33529;49.242;8.670;2023-07-28T00:30:19;18.10;99.90
47765;DHT22;33529;49.242;8.670;2023-07-28T00:32:48;18.10;99.90
47765;DHT22;33529;49.242;8.670;2023-07-28T00:35:15;18.10;99.90
47765;DHT22;33529;49.242;8.670;2023-07-28T00:37:42;18.10;99.90
47765;DHT22;33529;49.242;8.670;2023-07-28T00:40:09;18.10;99.90
47765;DHT22;33529;49.242;8.670;2023-07-28T00:42:36;18.10;99.90
47765;DHT22;33529;49.242;8.670;2023-07-28T00:45:06;18.20;99.90
47765;DHT22;33529;49.242;8.670;2023-07-28T00:47:33;18.10;99.90
47765;DHT22;33529;49.242;8.670;2023-07-28T00:50:00;18.10;99.90
47765;DHT22;33529;49.242;8.670;2023-07-28T00:52:27;18.10;99.90
47765;DHT22;33529;49.242;8.670;2023-07-28T00:54:53;18.10;99.90
47765;DHT22;33529;49.242;8.670;2023-07-28T00:57:20;18.10;99.90
47765;DHT22;33529;49.242;8.670;2023-07-28T00:59:47;18.10;99.90
47765;DHT22;33529;49.242;8.670;2023-07-28T01:02:18;18.10;99.90
47765;DHT22;33529;49.242;8.670;2023-07-28T01:04:45;18.10;99.90
47765;DHT22;33529;49.242;8.670;2023-07-28T01:07:17;18.00;99.90
47765;DHT22;33529;49.242;8.670;2023-07-28T01:09:52;18.10;99.90
47765;DHT22;33529;49.242;8.670;2023-07-28T01:12:20;18.10;99.90
47765;DHT22;33529;49.242;8.670;2023-07-28T01:14:47;18.10;99.90
47765;DHT22;33529;49.242;8.670;2023-07-28T01:17:16;18.10;99.90
47765;DHT22;33529;49.242;8.670;2023-07-28T01:19:43;18.10;99.90
47765;DHT22;33529;49.242;8.670;2023-07-28T01:22:38;18.10;99.90
47765;DHT22;33529;49.242;8.670;2023-07-28T01:25:22;18.10;99.90
47765;DHT22;33529;49.242;8.670;2023-07-28T01:27:53;18.20;99.90
47765;DHT22;33529;49.242;8.670;2023-07-28T01:30:21;18.20;99.90
47765;DHT22;33529;49.242;8.670;2023-07-28T01:32:48;18.10;99.90
47765;DHT22;33529;49.242;8.670;2023-07-28T01:35:15;18.10;99.90
47765;DHT22;33529;49.242;8.670;2023-07-28T01:37:42;18.00;99.90
47765;DHT22;33529;49.242;8.670;2023-07-28T01:40:09;18.00;99.90
47765;DHT22;33529;49.242;8.670;2023-07-28T01:42:36;18.00;99.90
47765;DHT22;33529;49.242;8.670;2023-07-28T01:45:03;18.00;99.90
47765;DHT22;33529;49.242;8.670;2023-07-28T01:47:30;18.00;99.90
47765;DHT22;33529;49.242;8.670;2023-07-28T01:49:57;18.00;99.90
47765;DHT22;33529;49.242;8.670;2023-07-28T01:52:24;18.00;99.90
47765;DHT22;33529;49.242;8.670;2023-07-28T01:54:52;18.10;99.90
47765;DHT22;33529;49.242;8.670;2023-07-28T01:57:19;18.00;99.90
47765;DHT22;33529;49.242;8.670;2023-07-28T01:59:46;18.00;99.90
47765;DHT22;33529;49.242;8.670;2023-07-28T02:02:13;18.00;99.90
47765;DHT22;33529;49.242;8.670;2023-07-28T02:04:40;18.00;99.90
47765;DHT22;33529;49.242;8.670;2023-07-28T02:07:07;17.90;99.90
47765;DHT22;33529;49.242;8.670;2023-07-28T02:09:34;17.90;99.90
47765;DHT22;33529;49.242;8.670;2023-07-28T02:12:01;17.90;99.90
47765;DHT22;33529;49.242;8.670;2023-07-28T02:14:28;17.90;99.90
47765;DHT22;33529;49.242;8.670;2023-07-28T02:16:54;18.00;99.90
47765;DHT22;33529;49.242;8.670;2023-07-28T02:19:21;18.00;99.90
47765;DHT22;33529;49.242;8.670;2023-07-28T02:21:48;18.00;99.90
47765;DHT22;33529;49.242;8.670;2023-07-28T02:24:15;18.00;99.90
47765;DHT22;33529;49.242;8.670;2023-07-28T02:26:42;18.00;99.90
47765;DHT22;33529;49.242;8.670;2023-07-28T02:29:09;18.00;99.90
47765;DHT22;33529;49.242;8.670;2023-07-28T02:31:36;18.00;99.90
47765;DHT22;33529;49.242;8.670;2023-07-28T02:34:03;18.00;99.90
47765;DHT22;33529;49.242;8.670;2023-07-28T02:36:30;18.00;99.90
47765;DHT22;33529;49.242;8.670;2023-07-28T02:38:58;18.00;99.90
47765;DHT22;33529;49.242;8.670;2023-07-28T02:41:25;18.00;99.90
47765;DHT22;33529;49.242;8.670;2023-07-28T02:43:51;17.90;99.90
47765;DHT22;33529;49.242;8.670;2023-07-28T02:46:18;18.00;99.90
47765;DHT22;33529;49.242;8.670;2023-07-28T02:48:46;18.00;99.90
47765;DHT22;33529;49.242;8.670;2023-07-28T02:51:12;17.90;99.90
47765;DHT22;33529;49.242;8.670;2023-07-28T02:53:39;17.90;99.90
47765;DHT22;33529;49.242;8.670;2023-07-28T02:56:06;18.00;99.90
47765;DHT22;33529;49.242;8.670;2023-07-28T02:58:33;18.00;99.90
47765;DHT22;33529;49.242;8.670;2023-07-28T03:00:59;18.00;99.90
47765;DHT22;33529;49.242;8.670;2023-07-28T03:03:34;18.00;99.90
47765;DHT22;33529;49.242;8.670;2023-07-28T03:06:01;18.00;99.90
47765;DHT22;33529;49.242;8.670;2023-07-28T03:08:28;18.00;99.90
47765;DHT22;33529;49.242;8.670;2023-07-28T03:11:10;18.00;99.90
47765;DHT22;33529;49.242;8.670;2023-07-28T03:13:37;18.00;99.90
47765;DHT22;33529;49.242;8.670;2023-07-28T03:16:04;18.00;99.90
47765;DHT22;33529;49.242;8.670;2023-07-28T03:18:31;18.00;99.90
47765;DHT22;33529;49.242;8.670;2023-07-28T03:20:59;18.00;99.90
47765;DHT22;33529;49.242;8.670;2023-07-28T03:23:25;18.00;99.90
47765;DHT22;33529;49.242;8.670;2023-07-28T03:25:52;18.00;99.90
47765;DHT22;33529;49.242;8.670;2023-07-28T03:28:19;17.90;99.90
47765;DHT22;33529;49.242;8.670;2023-07-28T03:30:46;17.90;99.90
47765;DHT22;33529;49.242;8.670;2023-07-28T03:33:13;17.90;99.90
47765;DHT22;33529;49.242;8.670;2023-07-28T03:35:40;17.90;99.90
47765;DHT22;33529;49.242;8.670;2023-07-28T03:38:09;17.90;99.90
47765;DHT22;33529;49.242;8.670;2023-07-28T03:40:36;17.90;99.90
47765;DHT22;33529;49.242;8.670;2023-07-28T03:43:03;17.90;99.90
47765;DHT22;33529;49.242;8.670;2023-07-28T03:45:30;17.90;99.90
47765;DHT22;33529;49.242;8.670;2023-07-28T03:47:57;17.90;99.90
47765;DHT22;33529;49.242;8.670;2023-07-28T03:50:24;17.90;99.90
47765;DHT22;33529;49.242;8.670;2023-07-28T03:52:52;17.90;99.90
47765;DHT22;33529;49.242;8.670;2023-07-28T03:55:19;17.90;99.90
47765;DHT22;33529;49.242;8.670;2023-07-28T03:57:46;17.90;99.90
47765;DHT22;33529;49.242;8.670;2023-07-28T04:00:13;17.90;99.90
47765;DHT22;33529;49.242;8.670;2023-07-28T04:02:40;17.90;99.90
47765;DHT22;33529;49.242;8.670;2023-07-28T04:05:07;17.90;99.90
47765;DHT22;33529;49.242;8.670;2023-07-28T04:07:34;17.90;99.90
47765;DHT22;33529;49.242;8.670;2023-07-28T04:10:01;17.90;99.90
47765;DHT22;33529;49.242;8.670;2023-07-28T04:12:28;17.90;99.90
47765;DHT22;33529;49.242;8.670;2023-07-28T04:14:55;17.90;99.90
47765;DHT22;33529;49.242;8.670;2023-07-28T04:17:23;17.90;99.90
47765;DHT22;33529;49.242;8.670;2023-07-28T04:19:50;17.90;99.90
47765;DHT22;33529;49.242;8.670;2023-07-28T04:22:17;17.90;99.90
47765;DHT22;33529;49.242;8.670;2023-07-28T04:24:50;17.90;99.90
47765;DHT22;33529;49.242;8.670;2023-07-28T04:27:18;17.90;99.90
47765;DHT22;33529;49.242;8.670;2023-07-28T04:29:45;17.90;99.90
47765;DHT22;33529;49.242;8.670;2023-07-28T04:32:16;18.00;99.90
47765;DHT22;33529;49.242;8.670;2023-07-28T04:34:43;17.90;99.90
47765;DHT22;33529;49.242;8.670;2023-07-28T04:37:34;17.90;99.90
47765;DHT22;33529;49.242;8.670;2023-07-28T04:40:01;17.90;99.90
47765;DHT22;33529;49.242;8.670;2023-07-28T04:42:33;17.90;99.90
47765;DHT22;33529;49.242;8.670;2023-07-28T04:45:00;17.90;99.90
47765;DHT22;33529;49.242;8.670;2023-07-28T04:47:27;17.80;99.90
47765;DHT22;33529;49.242;8.670;2023-07-28T04:49:54;17.80;99.90
47765;DHT22;33529;49.242;8.670;2023-07-28T04:52:40;17.80;99.90
47765;DHT22;33529;49.242;8.670;2023-07-28T04:55:39;17.80;99.90
47765;DHT22;33529;49.242;8.670;2023-07-28T04:58:06;17.80;99.90
47765;DHT22;33529;49.242;8.670;2023-07-28T05:00:48;17.80;99.90
47765;DHT22;33529;49.242;8.670;2023-07-28T05:03:15;17.80;99.90
47765;DHT22;33529;49.242;8.670;2023-07-28T05:05:50;17.80;99.90
47765;DHT22;33529;49.242;8.670;2023-07-28T05:08:17;17.80;99.90
47765;DHT22;33529;49.242;8.670;2023-07-28T05:10:44;17.90;99.90
47765;DHT22;33529;49.242;8.670;2023-07-28T05:13:12;17.90;99.90
47765;DHT22;33529;49.242;8.670;2023-07-28T05:15:44;17.90;99.90
47765;DHT22;33529;49.242;8.670;2023-07-28T05:18:20;17.90;99.90
47765;DHT22;33529;49.242;8.670;2023-07-28T05:21:01;17.90;99.90
47765;DHT22;33529;49.242;8.670;2023-07-28T05:23:28;17.80;99.90
47765;DHT22;33529;49.242;8.670;2023-07-28T05:25:55;17.80;99.90
47765;DHT22;33529;49.242;8.670;2023-07-28T05:28:22;17.80;99.90
47765;DHT22;33529;49.242;8.670;2023-07-28T05:30:53;17.90;99.90
47765;DHT22;33529;49.242;8.670;2023-07-28T05:33:20;17.90;99.90
47765;DHT22;33529;49.242;8.670;2023-07-28T05:35:59;17.90;99.90
47765;DHT22;33529;49.242;8.670;2023-07-28T05:38:30;17.90;99.90
47765;DHT22;33529;49.242;8.670;2023-07-28T05:41:00;17.80;99.90
47765;DHT22;33529;49.242;8.670;2023-07-28T05:43:27;17.80;99.90
47765;DHT22;33529;49.242;8.670;2023-07-28T05:45:57;17.80;99.90
47765;DHT22;33529;49.242;8.670;2023-07-28T05:48:26;17.90;99.90
47765;DHT22;33529;49.242;8.670;2023-07-28T05:50:52;18.00;99.90
47765;DHT22;33529;49.242;8.670;2023-07-28T05:53:23;18.00;99.90
47765;DHT22;33529;49.242;8.670;2023-07-28T05:55:57;17.90;99.90
47765;DHT22;33529;49.242;8.670;2023-07-28T05:58:26;18.00;99.90
47765;DHT22;33529;49.242;8.670;2023-07-28T06:00:52;17.90;99.90
47765;DHT22;33529;49.242;8.670;2023-07-28T06:03:40;17.90;99.90
47765;DHT22;33529;49.242;8.670;2023-07-28T06:06:16;17.90;99.90
47765;DHT22;33529;49.242;8.670;2023-07-28T06:08:44;17.90;99.90
47765;DHT22;33529;49.242;8.670;2023-07-28T06:11:11;17.90;99.90
47765;DHT22;33529;49.242;8.670;2023-07-28T06:13:38;17.90;99.90
47765;DHT22;33529;49.242;8.670;2023-07-28T06:16:05;18.00;99.90
47765;DHT22;33529;49.242;8.670;2023-07-28T06:18:32;18.10;99.90
47765;DHT22;33529;49.242;8.670;2023-07-28T06:21:07;18.00;99.90
47765;DHT22;33529;49.242;8.670;2023-07-28T06:23:34;18.10;99.90
47765;DHT22;33529;49.242;8.670;2023-07-28T06:26:02;18.10;99.90
47765;DHT22;33529;49.242;8.670;2023-07-28T06:28:30;18.00;99.90
47765;DHT22;33529;49.242;8.670;2023-07-28T06:30:57;18.10;99.90
47765;DHT22;33529;49.242;8.670;2023-07-28T06:33:28;18.00;99.90
47765;DHT22;33529;49.242;8.670;2023-07-28T06:35:55;18.10;99.90
47765;DHT22;33529;49.242;8.670;2023-07-28T06:38:22;18.20;99.90
47765;DHT22;33529;49.242;8.670;2023-07-28T06:40:49;18.20;99.90
47765;DHT22;33529;49.242;8.670;2023-07-28T06:43:16;18.30;99.90
47765;DHT22;33529;49.242;8.670;2023-07-28T06:45:47;18.30;99.90
47765;DHT22;33529;49.242;8.670;2023-07-28T06:48:17;18.30;99.90
47765;DHT22;33529;49.242;8.670;2023-07-28T06:50:43;18.30;99.90
47765;DHT22;33529;49.242;8.670;2023-07-28T06:53:10;18.30;99.90
47765;DHT22;33529;49.242;8.670;2023-07-28T06:55:37;18.40;99.90
47765;DHT22;33529;49.242;8.670;2023-07-28T06:58:05;18.60;99.90
47765;DHT22;33529;49.242;8.670;2023-07-28T07:00:33;18.70;99.90
47765;DHT22;33529;49.242;8.670;2023-07-28T07:03:00;18.70;99.90
47765;DHT22;33529;49.242;8.670;2023-07-28T07:05:28;18.70;99.90
47765;DHT22;33529;49.242;8.670;2023-07-28T07:07:55;18.80;99.90
47765;DHT22;33529;49.242;8.670;2023-07-28T07:10:22;18.90;99.90
47765;DHT22;33529;49.242;8.670;2023-07-28T07:12:49;18.80;99.90
47765;DHT22;33529;49.242;8.670;2023-07-28T07:15:15;18.80;99.90
47765;DHT22;33529;49.242;8.670;2023-07-28T07:17:43;18.80;99.90
47765;DHT22;33529;49.242;8.670;2023-07-28T07:20:10;18.80;99.90
47765;DHT22;33529;49.242;8.670;2023-07-28T07:22:39;18.80;99.90
47765;DHT22;33529;49.242;8.670;2023-07-28T07:25:06;18.80;99.90
47765;DHT22;33529;49.242;8.670;2023-07-28T07:27:33;18.70;99.90
47765;DHT22;33529;49.242;8.670;2023-07-28T07:30:00;18.70;99.90
47765;DHT22;33529;49.242;8.670;2023-07-28T07:32:27;18.70;99.90
47765;DHT22;33529;49.242;8.670;2023-07-28T07:34:54;18.70;99.90
47765;DHT22;33529;49.242;8.670;2023-07-28T07:37:21;18.70;99.90
47765;DHT22;33529;49.242;8.670;2023-07-28T07:39:47;18.70;99.90
47765;DHT22;33529;49.242;8.670;2023-07-28T07:42:14;18.80;99.90
47765;DHT22;33529;49.242;8.670;2023-07-28T07:44:41;18.70;99.90
47765;DHT22;33529;49.242;8.670;2023-07-28T07:47:14;18.70;99.90
47765;DHT22;33529;49.242;8.670;2023-07-28T07:49:42;18.80;99.90
47765;DHT22;33529;49.242;8.670;2023-07-28T07:52:10;19.00;99.90
47765;DHT22;33529;49.242;8.670;2023-07-28T07:54:37;19.00;99.90
47765;DHT22;33529;49.242;8.670;2023-07-28T07:57:04;19.10;99.90
47765;DHT22;33529;49.242;8.670;2023-07-28T07:59:31;19.10;99.90
47765;DHT22;33529;49.242;8.670;2023-07-28T08:02:03;19.00;99.90
47765;DHT22;33529;49.242;8.670;2023-07-28T08:04:31;19.00;99.90
47765;DHT22;33529;49.242;8.670;2023-07-28T08:06:58;19.00;99.90
47765;DHT22;33529;49.242;8.670;2023-07-28T08:09:25;19.10;99.90
47765;DHT22;33529;49.242;8.670;2023-07-28T08:11:52;19.10;99.90
47765;DHT22;33529;49.242;8.670;2023-07-28T08:14:20;19.10;99.90
47765;DHT22;33529;49.242;8.670;2023-07-28T08:16:46;19.20;99.90
47765;DHT22;33529;49.242;8.670;2023-07-28T08:19:13;19.20;99.90
47765;DHT22;33529;49.242;8.670;2023-07-28T08:21:40;19.10;99.90
47765;DHT22;33529;49.242;8.670;2023-07-28T08:24:07;19.10;99.90
47765;DHT22;33529;49.242;8.670;2023-07-28T08:26:34;19.10;99.90
47765;DHT22;33529;49.242;8.670;2023-07-28T08:29:02;19.20;99.90
47765;DHT22;33529;49.242;8.670;2023-07-28T08:31:28;19.20;99.90
47765;DHT22;33529;49.242;8.670;2023-07-28T08:33:55;19.40;99.90
47765;DHT22;33529;49.242;8.670;2023-07-28T08:36:22;19.50;99.90
47765;DHT22;33529;49.242;8.670;2023-07-28T08:38:49;19.80;99.90
47765;DHT22;33529;49.242;8.670;2023-07-28T08:41:16;20.00;99.90
47765;DHT22;33529;49.242;8.670;2023-07-28T08:43:43;20.30;99.90
47765;DHT22;33529;49.242;8.670;2023-07-28T08:46:10;20.50;99.90
47765;DHT22;33529;49.242;8.670;2023-07-28T08:48:37;20.60;99.90
47765;DHT22;33529;49.242;8.670;2023-07-28T08:51:04;20.70;99.90
47765;DHT22;33529;49.242;8.670;2023-07-28T08:53:31;20.80;99.90
47765;DHT22;33529;49.242;8.670;2023-07-28T08:55:57;20.90;99.90
47765;DHT22;33529;49.242;8.670;2023-07-28T08:58:24;21.10;99.90
47765;DHT22;33529;49.242;8.670;2023-07-28T09:00:52;21.20;99.90
47765;DHT22;33529;49.242;8.670;2023-07-28T09:03:19;21.30;99.90
47765;DHT22;33529;49.242;8.670;2023-07-28T09:05:47;21.30;99.90
47765;DHT22;33529;49.242;8.670;2023-07-28T09:08:15;21.20;99.90
47765;DHT22;33529;49.242;8.670;2023-07-28T09:10:47;21.30;99.90
47765;DHT22;33529;49.242;8.670;2023-07-28T09:13:18;21.10;99.90
47765;DHT22;33529;49.242;8.670;2023-07-28T09:15:45;21.20;99.90
47765;DHT22;33529;49.242;8.670;2023-07-28T09:18:15;21.20;99.90
47765;DHT22;33529;49.242;8.670;2023-07-28T09:20:43;21.20;99.90
47765;DHT22;33529;49.242;8.670;2023-07-28T09:23:12;21.30;99.90
47765;DHT22;33529;49.242;8.670;2023-07-28T09:25:39;21.50;99.90
47765;DHT22;33529;49.242;8.670;2023-07-28T09:28:06;21.70;99.90
47765;DHT22;33529;49.242;8.670;2023-07-28T09:30:48;22.00;99.90
47765;DHT22;33529;49.242;8.670;2023-07-28T09:33:30;22.10;99.90
47765;DHT22;33529;49.242;8.670;2023-07-28T09:35:57;22.10;99.90
47765;DHT22;33529;49.242;8.670;2023-07-28T09:38:27;22.10;99.90
47765;DHT22;33529;49.242;8.670;2023-07-28T09:40:56;22.10;99.90
47765;DHT22;33529;49.242;8.670;2023-07-28T09:43:24;22.00;99.90
47765;DHT22;33529;49.242;8.670;2023-07-28T09:45:50;22.00;99.90
47765;DHT22;33529;49.242;8.670;2023-07-28T09:48:18;22.10;99.90
47765;DHT22;33529;49.242;8.670;2023-07-28T09:50:45;22.30;99.90
47765;DHT22;33529;49.242;8.670;2023-07-28T09:53:13;22.50;99.90
47765;DHT22;33529;49.242;8.670;2023-07-28T09:55:40;22.40;99.90
47765;DHT22;33529;49.242;8.670;2023-07-28T09:58:10;22.40;99.90
47765;DHT22;33529;49.242;8.670;2023-07-28T10:00:40;22.40;99.90
47765;DHT22;33529;49.242;8.670;2023-07-28T10:03:08;22.40;99.90
47765;DHT22;33529;49.242;8.670;2023-07-28T10:05:37;22.30;99.90
47765;DHT22;33529;49.242;8.670;2023-07-28T10:08:04;22.50;99.90
47765;DHT22;33529;49.242;8.670;2023-07-28T10:10:32;22.60;99.90
47765;DHT22;33529;49.242;8.670;2023-07-28T10:12:59;22.70;99.90
47765;DHT22;33529;49.242;8.670;2023-07-28T10:15:31;22.90;99.90
47765;DHT22;33529;49.242;8.670;2023-07-28T10:17:59;23.10;99.90
47765;DHT22;33529;49.242;8.670;2023-07-28T10:20:38;23.30;99.90
47765;DHT22;33529;49.242;8.670;2023-07-28T10:23:16;23.20;99.90
47765;DHT22;33529;49.242;8.670;2023-07-28T10:25:44;23.00;99.90
47765;DHT22;33529;49.242;8.670;2023-07-28T10:28:30;22.70;99.90
47765;DHT22;33529;49.242;8.670;2023-07-28T10:31:02;22.50;99.90
47765;DHT22;33529;49.242;8.670;2023-07-28T10:33:48;22.30;99.90
47765;DHT22;33529;49.242;8.670;2023-07-28T10:41:30;22.20;99.90
47765;DHT22;33529;49.242;8.670;2023-07-28T10:43:59;22.50;99.90
47765;DHT22;33529;49.242;8.670;2023-07-28T10:46:26;22.70;99.90
47765;DHT22;33529;49.242;8.670;2023-07-28T10:48:54;22.70;99.90
47765;DHT22;33529;49.242;8.670;2023-07-28T10:51:29;22.60;99.90
47765;DHT22;33529;49.242;8.670;2023-07-28T10:54:00;22.60;99.90
47765;DHT22;33529;49.242;8.670;2023-07-28T10:56:29;22.40;99.90
47765;DHT22;33529;49.242;8.670;2023-07-28T10:59:02;22.20;99.90
47765;DHT22;33529;49.242;8.670;2023-07-28T11:01:38;21.90;99.90
47765;DHT22;33529;49.242;8.670;2023-07-28T11:06:33;21.80;99.90
47765;DHT22;33529;49.242;8.670;2023-07-28T11:09:00;21.90;99.90
47765;DHT22;33529;49.242;8.670;2023-07-28T11:11:27;22.00;99.90
47765;DHT22;33529;49.242;8.670;2023-07-28T11:13:54;22.00;99.90
47765;DHT22;33529;49.242;8.670;2023-07-28T11:16:21;21.90;99.90
47765;DHT22;33529;49.242;8.670;2023-07-28T11:18:48;21.80;99.90
47765;DHT22;33529;49.242;8.670;2023-07-28T11:21:17;21.50;99.90
47765;DHT22;33529;49.242;8.670;2023-07-28T11:23:45;21.40;99.90
47765;DHT22;33529;49.242;8.670;2023-07-28T11:26:13;21.40;99.90
47765;DHT22;33529;49.242;8.670;2023-07-28T11:28:40;21.40;99.90
47765;DHT22;33529;49.242;8.670;2023-07-28T11:31:08;21.40;99.90
47765;DHT22;33529;49.242;8.670;2023-07-28T11:33:35;21.60;99.90
47765;DHT22;33529;49.242;8.670;2023-07-28T11:36:02;21.80;99.90
47765;DHT22;33529;49.242;8.670;2023-07-28T11:38:29;21.90;99.90
47765;DHT22;33529;49.242;8.670;2023-07-28T11:40:56;22.10;99.90
47765;DHT22;33529;49.242;8.670;2023-07-28T11:43:23;22.10;99.90
47765;DHT22;33529;49.242;8.670;2023-07-28T11:45:52;22.00;99.90
47765;DHT22;33529;49.242;8.670;2023-07-28T11:48:18;22.00;99.90
47765;DHT22;33529;49.242;8.670;2023-07-28T11:50:45;21.80;99.90
47765;DHT22;33529;49.242;8.670;2023-07-28T11:53:12;21.70;99.90
47765;DHT22;33529;49.242;8.670;2023-07-28T11:55:40;21.70;99.90
47765;DHT22;33529;49.242;8.670;2023-07-28T11:58:08;21.60;99.90
47765;DHT22;33529;49.242;8.670;2023-07-28T12:00:39;21.40;99.90
47765;DHT22;33529;49.242;8.670;2023-07-28T12:03:07;21.40;99.90
47765;DHT22;33529;49.242;8.670;2023-07-28T12:05:57;21.40;99.90
47765;DHT22;33529;49.242;8.670;2023-07-28T12:08:39;21.40;99.90
47765;DHT22;33529;49.242;8.670;2023-07-28T12:11:13;21.30;99.90
47765;DHT22;33529;49.242;8.670;2023-07-28T12:13:50;21.30;99.90
47765;DHT22;33529;49.242;8.670;2023-07-28T12:16:40;21.30;99.90
47765;DHT22;33529;49.242;8.670;2023-07-28T12:19:13;21.40;99.90
47765;DHT22;33529;49.242;8.670;2023-07-28T12:21:40;21.40;99.90
47765;DHT22;33529;49.242;8.670;2023-07-28T12:24:07;21.40;99.90
47765;DHT22;33529;49.242;8.670;2023-07-28T12:26:35;21.40;99.90
47765;DHT22;33529;49.242;8.670;2023-07-28T12:29:06;21.40;99.90
47765;DHT22;33529;49.242;8.670;2023-07-28T12:31:35;21.50;99.90
47765;DHT22;33529;49.242;8.670;2023-07-28T12:34:05;21.50;99.90
47765;DHT22;33529;49.242;8.670;2023-07-28T12:36:32;21.40;99.90
47765;DHT22;33529;49.242;8.670;2023-07-28T12:39:04;21.20;99.90
47765;DHT22;33529;49.242;8.670;2023-07-28T12:41:35;21.00;99.90
47765;DHT22;33529;49.242;8.670;2023-07-28T12:44:05;20.70;99.90
47765;DHT22;33529;49.242;8.670;2023-07-28T12:46:32;20.60;99.90
47765;DHT22;33529;49.242;8.670;2023-07-28T12:48:59;20.50;99.90
47765;DHT22;33529;49.242;8.670;2023-07-28T12:51:26;20.50;99.90
47765;DHT22;33529;49.242;8.670;2023-07-28T12:53:57;20.50;99.90
47765;DHT22;33529;49.242;8.670;2023-07-28T12:56:23;20.60;99.90
47765;DHT22;33529;49.242;8.670;2023-07-28T12:58:53;20.60;99.90
47765;DHT22;33529;49.242;8.670;2023-07-28T13:01:24;20.50;99.90
47765;DHT22;33529;49.242;8.670;2023-07-28T13:03:52;20.60;99.90
47765;DHT22;33529;49.242;8.670;2023-07-28T13:06:20;20.70;99.90
47765;DHT22;33529;49.242;8.670;2023-07-28T13:08:47;20.90;99.90
47765;DHT22;33529;49.242;8.670;2023-07-28T13:11:17;20.90;99.90
47765;DHT22;33529;49.242;8.670;2023-07-28T13:13:57;20.90;99.90
47765;DHT22;33529;49.242;8.670;2023-07-28T13:16:24;20.90;99.90
47765;DHT22;33529;49.242;8.670;2023-07-28T13:18:52;20.80;99.90
47765;DHT22;33529;49.242;8.670;2023-07-28T13:21:19;20.70;99.90
47765;DHT22;33529;49.242;8.670;2023-07-28T13:23:46;20.60;99.90
47765;DHT22;33529;49.242;8.670;2023-07-28T13:26:12;20.50;99.90
47765;DHT22;33529;49.242;8.670;2023-07-28T13:28:39;20.40;99.90
47765;DHT22;33529;49.242;8.670;2023-07-28T13:31:10;20.50;99.90
47765;DHT22;33529;49.242;8.670;2023-07-28T13:33:36;20.50;99.90
47765;DHT22;33529;49.242;8.670;2023-07-28T13:36:04;20.50;99.90
47765;DHT22;33529;49.242;8.670;2023-07-28T13:38:34;20.50;99.90
47765;DHT22;33529;49.242;8.670;2023-07-28T13:41:03;20.40;99.90
47765;DHT22;33529;49.242;8.670;2023-07-28T13:43:30;20.30;99.90
47765;DHT22;33529;49.242;8.670;2023-07-28T13:45:57;20.30;99.90
47765;DHT22;33529;49.242;8.670;2023-07-28T13:48:24;20.20;99.90
47765;DHT22;33529;49.242;8.670;2023-07-28T13:50:52;20.20;99.90
47765;DHT22;33529;49.242;8.670;2023-07-28T13:53:23;20.10;99.90
47765;DHT22;33529;49.242;8.670;2023-07-28T13:55:53;20.10;99.90
47765;DHT22;33529;49.242;8.670;2023-07-28T13:58:24;20.10;99.90
47765;DHT22;33529;49.242;8.670;2023-07-28T14:00:51;20.10;99.90
47765;DHT22;33529;49.242;8.670;2023-07-28T14:03:18;20.10;99.90
47765;DHT22;33529;49.242;8.670;2023-07-28T14:05:45;20.20;99.90
47765;DHT22;33529;49.242;8.670;2023-07-28T14:08:13;20.30;99.90
47765;DHT22;33529;49.242;8.670;2023-07-28T14:10:45;20.20;99.90
47765;DHT22;33529;49.242;8.670;2023-07-28T14:13:12;20.30;99.90
47765;DHT22;33529;49.242;8.670;2023-07-28T14:15:39;20.20;99.90
47765;DHT22;33529;49.242;8.670;2023-07-28T14:18:07;20.10;99.90
47765;DHT22;33529;49.242;8.670;2023-07-28T14:20:34;20.10;99.90
47765;DHT22;33529;49.242;8.670;2023-07-28T14:23:01;20.20;99.90
47765;DHT22;33529;49.242;8.670;2023-07-28T14:25:28;20.20;99.90
47765;DHT22;33529;49.242;8.670;2023-07-28T14:27:55;20.30;99.90
47765;DHT22;33529;49.242;8.670;2023-07-28T14:30:22;20.30;99.90
47765;DHT22;33529;49.242;8.670;2023-07-28T14:32:49;20.40;99.90
47765;DHT22;33529;49.242;8.670;2023-07-28T14:35:16;20.50;99.90
47765;DHT22;33529;49.242;8.670;2023-07-28T14:37:43;20.50;99.90
47765;DHT22;33529;49.242;8.670;2023-07-28T14:40:10;20.50;99.90
47765;DHT22;33529;49.242;8.670;2023-07-28T14:42:37;20.60;99.90
47765;DHT22;33529;49.242;8.670;2023-07-28T14:45:06;20.60;99.90
47765;DHT22;33529;49.242;8.670;2023-07-28T14:47:33;20.50;99.90
47765;DHT22;33529;49.242;8.670;2023-07-28T14:49:59;20.50;99.90
47765;DHT22;33529;49.242;8.670;2023-07-28T14:52:26;20.50;99.90
47765;DHT22;33529;49.242;8.670;2023-07-28T14:54:53;20.50;99.90
47765;DHT22;33529;49.242;8.670;2023-07-28T14:57:20;20.60;99.90
47765;DHT22;33529;49.242;8.670;2023-07-28T15:00:00;20.50;99.90
47765;DHT22;33529;49.242;8.670;2023-07-28T15:02:27;20.60;99.90
47765;DHT22;33529;49.242;8.670;2023-07-28T15:04:54;20.70;99.90
47765;DHT22;33529;49.242;8.670;2023-07-28T15:07:21;20.70;99.90
47765;DHT22;33529;49.242;8.670;2023-07-28T15:09:49;20.60;99.90
47765;DHT22;33529;49.242;8.670;2023-07-28T15:12:16;20.60;99.90
47765;DHT22;33529;49.242;8.670;2023-07-28T15:14:43;20.50;99.90
47765;DHT22;33529;49.242;8.670;2023-07-28T15:17:10;20.40;99.90
47765;DHT22;33529;49.242;8.670;2023-07-28T15:19:37;20.20;99.90
47765;DHT22;33529;49.242;8.670;2023-07-28T15:22:04;20.20;99.90
47765;DHT22;33529;49.242;8.670;2023-07-28T15:24:31;20.10;99.90
47765;DHT22;33529;49.242;8.670;2023-07-28T15:26:58;20.10;99.90
47765;DHT22;33529;49.242;8.670;2023-07-28T15:29:26;20.10;99.90
47765;DHT22;33529;49.242;8.670;2023-07-28T15:31:56;20.10;99.90
47765;DHT22;33529;49.242;8.670;2023-07-28T15:34:23;20.10;99.90
47765;DHT22;33529;49.242;8.670;2023-07-28T15:36:50;20.10;99.90
47765;DHT22;33529;49.242;8.670;2023-07-28T15:39:16;20.10;99.90
47765;DHT22;33529;49.242;8.670;2023-07-28T15:41:43;20.10;99.90
47765;DHT22;33529;49.242;8.670;2023-07-28T15:44:10;20.10;99.90
47765;DHT22;33529;49.242;8.670;2023-07-28T15:46:37;20.10;99.90